createdAt,value
2023-03-16T00:01:23.561Z,19.89
2023-03-16T00:06:28.422Z,19.44
2023-03-16T00:11:33.254Z,19.32
2023-03-16T00:16:38.121Z,18.78
2023-03-16T00:21:42.858Z,19.22
2023-03-16T00:26:48.659Z,19.21
2023-03-16T00:31:53.476Z,19.14
2023-03-16T00:36:58.219Z,18.91
2023-03-16T00:42:05.737Z,18.90
2023-03-16T00:47:15.394Z,18.44
2023-03-16T00:52:20.606Z,18.28
2023-03-16T00:57:29.923Z,18.48
2023-03-16T01:02:38.272Z,18.87
2023-03-16T01:07:44.258Z,18.90
2023-03-16T01:12:50.002Z,18.62
2023-03-16T01:17:55.684Z,18.79
2023-03-16T01:23:00.523Z,18.38
2023-03-16T01:28:05.354Z,17.95
2023-03-16T01:33:10.414Z,18.06
2023-03-16T01:38:16.498Z,16.53
2023-03-16T01:43:27.146Z,18.09
2023-03-16T01:48:44.259Z,17.38
2023-03-16T01:53:54.339Z,17.90
2023-03-16T01:59:02.211Z,17.72
2023-03-16T02:04:16.072Z,16.74
2023-03-16T02:09:22.018Z,17.80
2023-03-16T02:14:28.008Z,17.91
2023-03-16T02:20:02.019Z,17.34
2023-03-16T02:25:07.340Z,16.84
2023-03-16T02:30:15.252Z,17.10
2023-03-16T02:35:35.820Z,17.10
2023-03-16T02:40:41.069Z,16.89
2023-03-16T02:46:09.263Z,17.66
2023-03-16T02:51:14.859Z,17.22
2023-03-16T02:56:22.103Z,17.54
2023-03-16T03:01:27.893Z,17.50
2023-03-16T03:06:33.570Z,16.88
2023-03-16T03:11:40.712Z,17.80
2023-03-16T03:16:47.883Z,17.25
2023-03-16T03:21:53.780Z,16.59
2023-03-16T03:26:59.988Z,17.09
2023-03-16T03:32:06.245Z,17.06
2023-03-16T03:37:11.149Z,16.96
2023-03-16T03:42:19.590Z,16.72
2023-03-16T03:47:24.428Z,17.37
2023-03-16T03:52:30.409Z,15.81
2023-03-16T03:57:34.690Z,15.77
2023-03-16T04:02:42.114Z,16.42
2023-03-16T04:07:58.849Z,16.86
2023-03-16T04:13:03.958Z,14.89
2023-03-16T04:18:11.269Z,16.49
2023-03-16T04:23:17.957Z,16.06
2023-03-16T04:28:27.623Z,16.05
2023-03-16T04:33:33.579Z,16.40
2023-03-16T04:38:38.514Z,16.90
2023-03-16T04:43:44.473Z,15.57
2023-03-16T04:48:59.525Z,16.34
2023-03-16T04:54:06.415Z,15.29
2023-03-16T04:59:14.297Z,14.66
2023-03-16T05:04:25.910Z,14.01
2023-03-16T05:09:30.727Z,15.09
2023-03-16T05:14:38.088Z,16.12
2023-03-16T05:20:03.336Z,14.42
2023-03-16T05:25:10.820Z,14.40
2023-03-16T05:30:18.246Z,15.41
2023-03-16T05:35:25.034Z,15.69
2023-03-16T05:40:34.294Z,16.12
2023-03-16T05:45:49.495Z,14.46
2023-03-16T05:50:56.929Z,15.24
2023-03-16T05:56:08.202Z,15.56
2023-03-16T06:01:18.730Z,15.78
2023-03-16T06:06:24.815Z,15.53
2023-03-16T06:11:39.751Z,15.70
2023-03-16T06:16:46.148Z,15.10
2023-03-16T06:21:52.589Z,14.64
2023-03-16T06:26:58.350Z,14.57
2023-03-16T06:32:10.545Z,14.06
2023-03-16T06:37:16.828Z,14.23
2023-03-16T06:42:22.568Z,13.87
2023-03-16T06:47:28.503Z,14.64
2023-03-16T06:52:33.298Z,14.88
2023-03-16T06:57:38.193Z,15.18
2023-03-16T07:02:44.959Z,15.11
2023-03-16T07:07:51.814Z,14.91
2023-03-16T07:12:58.396Z,16.38
2023-03-16T07:18:03.977Z,16.03
2023-03-16T07:23:09.648Z,15.16
2023-03-16T07:28:14.740Z,15.27
2023-03-16T07:33:22.167Z,15.37
2023-03-16T07:38:27.557Z,15.35
2023-03-16T07:43:34.210Z,15.59
2023-03-16T07:48:39.156Z,14.16
2023-03-16T07:53:44.363Z,15.73
2023-03-16T07:58:55.358Z,14.35
2023-03-16T08:04:01.574Z,15.77
2023-03-16T08:09:07.360Z,15.82
2023-03-16T08:14:15.692Z,15.69
2023-03-16T08:19:40.151Z,14.67
2023-03-16T08:24:47.143Z,14.75
2023-03-16T08:29:57.195Z,15.50
2023-03-16T08:35:03.841Z,15.19
2023-03-16T08:40:12.959Z,15.95
2023-03-16T08:45:21.199Z,15.58
2023-03-16T08:50:27.454Z,15.55
2023-03-16T08:55:32.383Z,15.46
2023-03-16T09:00:37.715Z,15.78
2023-03-16T09:05:44.560Z,15.43
2023-03-16T09:10:50.115Z,15.86
2023-03-16T09:15:55.457Z,15.98
2023-03-16T09:21:04.981Z,15.88
2023-03-16T09:26:11.717Z,16.33
2023-03-16T09:31:21.463Z,16.59
2023-03-16T09:36:26.847Z,16.40
2023-03-16T09:41:46.415Z,16.64
2023-03-16T09:46:53.452Z,16.54
2023-03-16T09:52:15.036Z,16.84
2023-03-16T09:57:36.823Z,16.77
2023-03-16T10:03:02.710Z,17.06
2023-03-16T10:08:24.369Z,16.83
2023-03-16T10:13:52.429Z,16.80
2023-03-16T10:19:10.292Z,17.45
2023-03-16T10:24:28.705Z,16.98
2023-03-16T10:29:38.209Z,17.20
2023-03-16T10:34:44.735Z,16.60
2023-03-16T10:39:51.226Z,16.51
2023-03-16T10:45:03.242Z,17.20
2023-03-16T10:50:18.095Z,17.30
2023-03-16T10:55:27.645Z,17.75
2023-03-16T11:00:38.407Z,17.47
2023-03-16T11:05:43.107Z,18.49
2023-03-16T11:10:56.377Z,18.77
2023-03-16T11:16:28.782Z,18.03
2023-03-16T11:21:56.450Z,18.20
2023-03-16T11:27:09.907Z,18.55
2023-03-16T11:32:30.957Z,18.62
2023-03-16T11:38:12.920Z,18.72
2023-03-16T11:43:42.879Z,18.40
2023-03-16T11:48:54.991Z,18.94
2023-03-16T11:54:15.901Z,18.94
2023-03-16T12:00:01.574Z,18.93
2023-03-16T12:05:24.389Z,19.62
2023-03-16T12:10:54.012Z,19.34
2023-03-16T12:16:06.957Z,19.63
2023-03-16T12:21:43.633Z,19.64
2023-03-16T12:26:50.845Z,20.21
2023-03-16T12:32:09.629Z,20.40
2023-03-16T12:37:24.839Z,19.71
2023-03-16T12:43:02.646Z,19.77
2023-03-16T12:48:32.051Z,20.22
2023-03-16T12:53:47.992Z,20.60
2023-03-16T12:58:53.114Z,19.98
2023-03-16T13:04:20.589Z,19.73
2023-03-16T13:09:32.649Z,19.68
2023-03-16T13:14:41.857Z,20.35
2023-03-16T13:20:08.997Z,19.95
2023-03-16T13:25:30.371Z,19.99
2023-03-16T13:30:37.829Z,20.25
2023-03-16T13:35:43.305Z,20.03
2023-03-16T13:40:55.240Z,20.51
2023-03-16T13:46:00.519Z,20.69
2023-03-16T13:51:05.486Z,21.49
2023-03-16T13:56:14.867Z,20.41
2023-03-16T14:01:34.585Z,20.60
2023-03-16T14:06:39.824Z,21.01
2023-03-16T14:11:49.694Z,21.01
2023-03-16T14:16:55.958Z,21.03
2023-03-16T14:22:05.440Z,21.18
2023-03-16T14:27:27.907Z,20.90
2023-03-16T14:32:34.650Z,21.61
2023-03-16T14:37:39.829Z,21.82
2023-03-16T14:42:45.436Z,21.55
2023-03-16T14:47:52.509Z,22.08
2023-03-16T14:52:58.711Z,22.05
2023-03-16T14:58:03.665Z,21.90
2023-03-16T15:03:13.050Z,21.89
2023-03-16T15:08:32.560Z,22.63
2023-03-16T15:13:54.221Z,22.36
2023-03-16T15:18:58.966Z,22.33
2023-03-16T15:24:03.920Z,22.26
2023-03-16T15:29:11.041Z,23.47
2023-03-16T15:34:15.848Z,22.39
2023-03-16T15:39:27.458Z,22.43
2023-03-16T15:44:32.326Z,23.14
2023-03-16T15:49:46.610Z,21.86
2023-03-16T15:54:51.708Z,23.29
2023-03-16T15:59:56.320Z,22.95
2023-03-16T16:05:02.855Z,23.23
2023-03-16T16:10:09.788Z,23.18
2023-03-16T16:15:38.158Z,23.03
2023-03-16T16:20:42.959Z,23.16
2023-03-16T16:25:49.299Z,23.09
2023-03-16T16:30:54.725Z,22.88
2023-03-16T16:36:01.841Z,22.79
2023-03-16T16:41:11.622Z,23.46
2023-03-16T16:46:25.128Z,22.93
2023-03-16T16:51:32.705Z,22.74
2023-03-16T16:56:39.798Z,24.85
2023-03-16T17:01:44.976Z,23.76
2023-03-16T17:06:49.743Z,23.85
2023-03-16T17:11:57.245Z,23.86
2023-03-16T17:17:06.132Z,23.45
2023-03-16T17:22:23.933Z,23.69
2023-03-16T17:27:32.537Z,23.40
2023-03-16T17:32:37.558Z,23.63
2023-03-16T17:37:43.865Z,23.53
2023-03-16T17:42:50.790Z,23.97
2023-03-16T17:47:57.483Z,23.21
2023-03-16T17:53:02.260Z,23.26
2023-03-16T17:58:07.853Z,23.72
2023-03-16T18:03:18.568Z,23.49
2023-03-16T18:08:31.114Z,23.99
2023-03-16T18:13:41.309Z,23.81
2023-03-16T18:18:46.071Z,23.83
2023-03-16T18:23:52.497Z,23.26
2023-03-16T18:28:57.637Z,23.44
2023-03-16T18:34:06.530Z,23.46
2023-03-16T18:39:19.105Z,23.57
2023-03-16T18:44:27.776Z,24.59
2023-03-16T18:49:36.246Z,23.79
2023-03-16T18:54:40.926Z,24.28
2023-03-16T18:59:45.850Z,24.45
2023-03-16T19:04:52.112Z,24.24
2023-03-16T19:09:57.229Z,24.91
2023-03-16T19:15:01.898Z,25.37
2023-03-16T19:20:06.604Z,25.41
2023-03-16T19:25:18.537Z,24.55
2023-03-16T19:30:30.519Z,25.85
2023-03-16T19:35:50.809Z,27.62
2023-03-16T19:41:02.215Z,26.19
2023-03-16T19:46:07.181Z,25.94
2023-03-16T19:51:19.233Z,25.49
2023-03-16T19:56:26.768Z,26.74
2023-03-16T20:01:34.761Z,26.39
2023-03-16T20:06:39.420Z,27.31
2023-03-16T20:11:44.139Z,26.08
2023-03-16T20:16:49.453Z,26.30
2023-03-16T20:21:53.457Z,26.93
2023-03-16T20:26:58.445Z,26.54
2023-03-16T20:32:04.838Z,27.29
2023-03-16T20:37:31.921Z,26.67
2023-03-16T20:42:38.103Z,27.02
2023-03-16T20:47:43.504Z,26.30
2023-03-16T20:52:49.127Z,26.71
2023-03-16T20:57:55.279Z,25.93
2023-03-16T21:03:00.908Z,25.60
2023-03-16T21:08:06.542Z,27.42
2023-03-16T21:13:36.399Z,25.87
2023-03-16T21:18:41.358Z,25.85
2023-03-16T21:23:48.290Z,26.72
2023-03-16T21:29:03.570Z,26.05
2023-03-16T21:34:19.952Z,26.76
2023-03-16T21:39:26.150Z,27.73
2023-03-16T21:44:31.226Z,26.89
2023-03-16T21:49:36.359Z,25.80
2023-03-16T21:54:41.634Z,27.33
2023-03-16T21:59:46.947Z,27.07
2023-03-16T22:04:54.690Z,27.53
2023-03-16T22:10:00.568Z,26.46
2023-03-16T22:15:06.518Z,27.33
2023-03-16T22:20:27.575Z,25.77
2023-03-16T22:25:32.760Z,25.67
2023-03-16T22:30:37.969Z,26.69
2023-03-16T22:35:43.323Z,27.12
2023-03-16T22:40:48.619Z,26.24
2023-03-16T22:45:57.578Z,27.52
2023-03-16T22:51:06.141Z,26.66
2023-03-16T22:56:13.289Z,27.03
2023-03-16T23:01:20.152Z,27.25
2023-03-16T23:06:28.374Z,29.57
2023-03-16T23:11:38.372Z,28.25
2023-03-16T23:16:45.755Z,26.70
2023-03-16T23:21:51.336Z,26.69
2023-03-16T23:26:58.295Z,27.11
2023-03-16T23:32:05.495Z,27.29
2023-03-16T23:37:11.399Z,27.26
2023-03-16T23:42:17.516Z,26.27
2023-03-16T23:47:22.688Z,26.17
2023-03-16T23:52:28.978Z,26.45
2023-03-16T23:57:35.541Z,26.95
